sensor_id;sensor_type;location;lat;lon;timestamp;P1;durP1;ratioP1;P2;durP2;ratioP2
10565;SDS011;5331;48.148;16.326;2022-09-09T00:00:53;1.10;;;1.10;;
10565;SDS011;5331;48.148;16.326;2022-09-09T00:03:27;1.67;;;1.30;;
10565;SDS011;5331;48.148;16.326;2022-09-09T00:06:02;1.30;;;1.20;;
10565;SDS011;5331;48.148;16.326;2022-09-09T00:08:36;1.65;;;1.10;;
10565;SDS011;5331;48.148;16.326;2022-09-09T00:11:16;1.40;;;1.30;;
10565;SDS011;5331;48.148;16.326;2022-09-09T00:13:48;1.20;;;1.10;;
10565;SDS011;5331;48.148;16.326;2022-09-09T00:16:20;1.40;;;1.30;;
10565;SDS011;5331;48.148;16.326;2022-09-09T00:18:52;1.27;;;1.17;;
10565;SDS011;5331;48.148;16.326;2022-09-09T00:21:28;1.20;;;1.20;;
10565;SDS011;5331;48.148;16.326;2022-09-09T00:23:59;1.30;;;1.20;;
10565;SDS011;5331;48.148;16.326;2022-09-09T00:26:38;1.00;;;1.00;;
10565;SDS011;5331;48.148;16.326;2022-09-09T00:29:10;1.20;;;1.20;;
10565;SDS011;5331;48.148;16.326;2022-09-09T00:31:44;1.38;;;1.27;;
10565;SDS011;5331;48.148;16.326;2022-09-09T00:34:12;1.05;;;1.05;;
10565;SDS011;5331;48.148;16.326;2022-09-09T00:36:42;1.08;;;1.08;;
10565;SDS011;5331;48.148;16.326;2022-09-09T00:39:12;1.63;;;1.00;;
10565;SDS011;5331;48.148;16.326;2022-09-09T00:41:49;1.00;;;1.00;;
10565;SDS011;5331;48.148;16.326;2022-09-09T00:44:26;1.13;;;1.00;;
10565;SDS011;5331;48.148;16.326;2022-09-09T00:47:02;1.00;;;1.00;;
10565;SDS011;5331;48.148;16.326;2022-09-09T00:49:40;1.08;;;1.08;;
10565;SDS011;5331;48.148;16.326;2022-09-09T00:52:20;1.08;;;0.95;;
10565;SDS011;5331;48.148;16.326;2022-09-09T00:54:54;0.95;;;0.95;;
10565;SDS011;5331;48.148;16.326;2022-09-09T00:57:31;0.90;;;0.90;;
10565;SDS011;5331;48.148;16.326;2022-09-09T01:00:14;0.98;;;0.98;;
10565;SDS011;5331;48.148;16.326;2022-09-09T01:02:46;0.90;;;0.90;;
10565;SDS011;5331;48.148;16.326;2022-09-09T01:05:34;0.90;;;0.90;;
10565;SDS011;5331;48.148;16.326;2022-09-09T01:08:09;0.93;;;0.93;;
10565;SDS011;5331;48.148;16.326;2022-09-09T01:10:43;1.00;;;1.00;;
10565;SDS011;5331;48.148;16.326;2022-09-09T01:13:19;0.90;;;0.90;;
10565;SDS011;5331;48.148;16.326;2022-09-09T01:15:49;1.00;;;1.00;;
10565;SDS011;5331;48.148;16.326;2022-09-09T01:18:19;1.08;;;1.08;;
10565;SDS011;5331;48.148;16.326;2022-09-09T01:20:50;1.05;;;1.05;;
10565;SDS011;5331;48.148;16.326;2022-09-09T01:23:28;1.08;;;1.08;;
10565;SDS011;5331;48.148;16.326;2022-09-09T01:26:10;1.00;;;1.00;;
10565;SDS011;5331;48.148;16.326;2022-09-09T01:28:45;1.13;;;1.13;;
10565;SDS011;5331;48.148;16.326;2022-09-09T01:31:15;0.90;;;0.90;;
10565;SDS011;5331;48.148;16.326;2022-09-09T01:33:44;1.13;;;1.05;;
10565;SDS011;5331;48.148;16.326;2022-09-09T01:36:12;0.98;;;0.90;;
10565;SDS011;5331;48.148;16.326;2022-09-09T01:38:43;1.20;;;1.05;;
10565;SDS011;5331;48.148;16.326;2022-09-09T01:41:11;1.00;;;0.95;;
10565;SDS011;5331;48.148;16.326;2022-09-09T01:43:38;1.20;;;1.20;;
10565;SDS011;5331;48.148;16.326;2022-09-09T01:46:05;1.30;;;1.20;;
10565;SDS011;5331;48.148;16.326;2022-09-09T01:48:32;1.10;;;1.10;;
10565;SDS011;5331;48.148;16.326;2022-09-09T01:50:59;1.00;;;1.00;;
10565;SDS011;5331;48.148;16.326;2022-09-09T01:53:26;0.95;;;0.95;;
10565;SDS011;5331;48.148;16.326;2022-09-09T01:55:56;1.13;;;0.80;;
10565;SDS011;5331;48.148;16.326;2022-09-09T01:58:34;1.08;;;1.08;;
10565;SDS011;5331;48.148;16.326;2022-09-09T02:01:12;1.00;;;1.00;;
10565;SDS011;5331;48.148;16.326;2022-09-09T02:03:50;1.20;;;1.10;;
10565;SDS011;5331;48.148;16.326;2022-09-09T02:06:23;1.00;;;1.00;;
10565;SDS011;5331;48.148;16.326;2022-09-09T02:08:55;0.95;;;0.95;;
10565;SDS011;5331;48.148;16.326;2022-09-09T02:11:25;1.00;;;1.00;;
10565;SDS011;5331;48.148;16.326;2022-09-09T02:13:56;1.02;;;1.02;;
10565;SDS011;5331;48.148;16.326;2022-09-09T02:16:26;1.25;;;1.17;;
10565;SDS011;5331;48.148;16.326;2022-09-09T02:18:59;1.10;;;1.10;;
10565;SDS011;5331;48.148;16.326;2022-09-09T02:21:30;1.20;;;1.20;;
10565;SDS011;5331;48.148;16.326;2022-09-09T02:24:02;0.90;;;0.90;;
10565;SDS011;5331;48.148;16.326;2022-09-09T02:26:33;1.30;;;1.20;;
10565;SDS011;5331;48.148;16.326;2022-09-09T02:29:04;1.10;;;1.10;;
10565;SDS011;5331;48.148;16.326;2022-09-09T02:31:34;1.27;;;1.13;;
10565;SDS011;5331;48.148;16.326;2022-09-09T02:34:03;1.77;;;1.20;;
10565;SDS011;5331;48.148;16.326;2022-09-09T02:36:34;1.20;;;1.20;;
10565;SDS011;5331;48.148;16.326;2022-09-09T02:39:04;1.10;;;1.10;;
10565;SDS011;5331;48.148;16.326;2022-09-09T02:41:34;1.17;;;1.17;;
10565;SDS011;5331;48.148;16.326;2022-09-09T02:44:08;1.30;;;1.20;;
10565;SDS011;5331;48.148;16.326;2022-09-09T02:46:43;1.08;;;1.08;;
10565;SDS011;5331;48.148;16.326;2022-09-09T02:49:33;1.95;;;1.10;;
10565;SDS011;5331;48.148;16.326;2022-09-09T02:52:07;1.30;;;1.20;;
10565;SDS011;5331;48.148;16.326;2022-09-09T02:54:40;1.20;;;1.10;;
10565;SDS011;5331;48.148;16.326;2022-09-09T02:57:10;1.00;;;1.00;;
10565;SDS011;5331;48.148;16.326;2022-09-09T02:59:39;1.00;;;1.00;;
10565;SDS011;5331;48.148;16.326;2022-09-09T03:02:07;1.20;;;1.20;;
10565;SDS011;5331;48.148;16.326;2022-09-09T03:04:35;1.13;;;1.13;;
10565;SDS011;5331;48.148;16.326;2022-09-09T03:07:02;1.15;;;1.15;;
10565;SDS011;5331;48.148;16.326;2022-09-09T03:09:29;1.52;;;1.10;;
10565;SDS011;5331;48.148;16.326;2022-09-09T03:11:57;1.30;;;1.30;;
10565;SDS011;5331;48.148;16.326;2022-09-09T03:14:25;1.73;;;1.40;;
10565;SDS011;5331;48.148;16.326;2022-09-09T03:16:53;2.28;;;1.30;;
10565;SDS011;5331;48.148;16.326;2022-09-09T03:19:21;1.48;;;1.38;;
10565;SDS011;5331;48.148;16.326;2022-09-09T03:21:48;1.25;;;1.15;;
10565;SDS011;5331;48.148;16.326;2022-09-09T03:24:15;1.27;;;1.27;;
10565;SDS011;5331;48.148;16.326;2022-09-09T03:26:42;1.15;;;1.15;;
10565;SDS011;5331;48.148;16.326;2022-09-09T03:29:10;1.30;;;1.25;;
10565;SDS011;5331;48.148;16.326;2022-09-09T03:31:38;1.20;;;1.20;;
10565;SDS011;5331;48.148;16.326;2022-09-09T03:34:07;1.30;;;1.17;;
10565;SDS011;5331;48.148;16.326;2022-09-09T03:36:34;1.27;;;1.10;;
10565;SDS011;5331;48.148;16.326;2022-09-09T03:39:01;1.50;;;1.40;;
10565;SDS011;5331;48.148;16.326;2022-09-09T03:41:29;1.20;;;1.20;;
10565;SDS011;5331;48.148;16.326;2022-09-09T03:43:56;1.42;;;1.33;;
10565;SDS011;5331;48.148;16.326;2022-09-09T03:46:24;1.20;;;1.20;;
10565;SDS011;5331;48.148;16.326;2022-09-09T03:48:51;1.13;;;1.13;;
10565;SDS011;5331;48.148;16.326;2022-09-09T03:51:20;1.20;;;1.20;;
10565;SDS011;5331;48.148;16.326;2022-09-09T03:53:47;2.03;;;1.60;;
10565;SDS011;5331;48.148;16.326;2022-09-09T03:56:14;1.55;;;1.40;;
10565;SDS011;5331;48.148;16.326;2022-09-09T03:58:41;1.65;;;1.55;;
10565;SDS011;5331;48.148;16.326;2022-09-09T04:01:09;4.25;;;2.45;;
10565;SDS011;5331;48.148;16.326;2022-09-09T04:03:39;2.40;;;1.77;;
10565;SDS011;5331;48.148;16.326;2022-09-09T04:06:06;1.85;;;1.70;;
10565;SDS011;5331;48.148;16.326;2022-09-09T04:08:36;4.57;;;1.88;;
10565;SDS011;5331;48.148;16.326;2022-09-09T04:11:04;1.65;;;1.55;;
10565;SDS011;5331;48.148;16.326;2022-09-09T04:13:32;1.70;;;1.60;;
10565;SDS011;5331;48.148;16.326;2022-09-09T04:16:00;1.58;;;1.48;;
10565;SDS011;5331;48.148;16.326;2022-09-09T04:18:29;2.22;;;1.50;;
10565;SDS011;5331;48.148;16.326;2022-09-09T04:20:56;2.22;;;1.60;;
10565;SDS011;5331;48.148;16.326;2022-09-09T04:23:24;1.88;;;1.42;;
10565;SDS011;5331;48.148;16.326;2022-09-09T04:25:54;2.55;;;1.50;;
10565;SDS011;5331;48.148;16.326;2022-09-09T04:28:22;1.60;;;1.50;;
10565;SDS011;5331;48.148;16.326;2022-09-09T04:30:50;1.55;;;1.45;;
10565;SDS011;5331;48.148;16.326;2022-09-09T04:33:18;1.75;;;1.65;;
10565;SDS011;5331;48.148;16.326;2022-09-09T04:35:46;1.85;;;1.60;;
10565;SDS011;5331;48.148;16.326;2022-09-09T04:38:15;1.80;;;1.70;;
10565;SDS011;5331;48.148;16.326;2022-09-09T04:40:42;2.03;;;1.63;;
10565;SDS011;5331;48.148;16.326;2022-09-09T04:43:12;1.70;;;1.60;;
10565;SDS011;5331;48.148;16.326;2022-09-09T04:45:39;2.40;;;1.58;;
10565;SDS011;5331;48.148;16.326;2022-09-09T04:48:08;2.05;;;1.70;;
10565;SDS011;5331;48.148;16.326;2022-09-09T04:50:35;1.98;;;1.58;;
10565;SDS011;5331;48.148;16.326;2022-09-09T04:53:02;1.95;;;1.60;;
10565;SDS011;5331;48.148;16.326;2022-09-09T04:55:31;1.67;;;1.60;;
10565;SDS011;5331;48.148;16.326;2022-09-09T04:57:58;1.60;;;1.50;;
10565;SDS011;5331;48.148;16.326;2022-09-09T05:00:31;2.28;;;1.70;;
10565;SDS011;5331;48.148;16.326;2022-09-09T05:02:58;1.98;;;1.67;;
10565;SDS011;5331;48.148;16.326;2022-09-09T05:05:29;1.85;;;1.48;;
10565;SDS011;5331;48.148;16.326;2022-09-09T05:08:00;1.40;;;1.30;;
10565;SDS011;5331;48.148;16.326;2022-09-09T05:10:28;2.30;;;1.70;;
10565;SDS011;5331;48.148;16.326;2022-09-09T05:12:54;2.80;;;1.92;;
10565;SDS011;5331;48.148;16.326;2022-09-09T05:15:21;2.25;;;1.80;;
10565;SDS011;5331;48.148;16.326;2022-09-09T05:17:50;2.20;;;1.83;;
10565;SDS011;5331;48.148;16.326;2022-09-09T05:20:18;1.70;;;1.60;;
10565;SDS011;5331;48.148;16.326;2022-09-09T05:22:45;1.88;;;1.63;;
10565;SDS011;5331;48.148;16.326;2022-09-09T05:25:11;1.77;;;1.67;;
10565;SDS011;5331;48.148;16.326;2022-09-09T05:27:38;2.20;;;2.00;;
10565;SDS011;5331;48.148;16.326;2022-09-09T05:30:06;2.55;;;1.80;;
10565;SDS011;5331;48.148;16.326;2022-09-09T05:32:34;2.03;;;1.92;;
10565;SDS011;5331;48.148;16.326;2022-09-09T05:35:03;2.72;;;2.22;;
10565;SDS011;5331;48.148;16.326;2022-09-09T05:37:30;2.83;;;1.98;;
10565;SDS011;5331;48.148;16.326;2022-09-09T05:39:58;2.45;;;2.28;;
10565;SDS011;5331;48.148;16.326;2022-09-09T05:42:29;2.22;;;1.95;;
10565;SDS011;5331;48.148;16.326;2022-09-09T05:44:56;7.55;;;2.70;;
10565;SDS011;5331;48.148;16.326;2022-09-09T05:47:23;3.15;;;2.22;;
10565;SDS011;5331;48.148;16.326;2022-09-09T05:49:52;4.50;;;2.20;;
10565;SDS011;5331;48.148;16.326;2022-09-09T05:52:21;1.90;;;1.80;;
10565;SDS011;5331;48.148;16.326;2022-09-09T05:54:48;2.28;;;1.60;;
10565;SDS011;5331;48.148;16.326;2022-09-09T05:57:15;2.20;;;2.00;;
10565;SDS011;5331;48.148;16.326;2022-09-09T05:59:44;2.00;;;1.80;;
10565;SDS011;5331;48.148;16.326;2022-09-09T06:02:11;2.20;;;2.08;;
10565;SDS011;5331;48.148;16.326;2022-09-09T06:04:38;2.95;;;2.08;;
10565;SDS011;5331;48.148;16.326;2022-09-09T06:07:05;2.33;;;2.00;;
10565;SDS011;5331;48.148;16.326;2022-09-09T06:09:33;2.47;;;1.90;;
10565;SDS011;5331;48.148;16.326;2022-09-09T06:12:00;2.33;;;1.90;;
10565;SDS011;5331;48.148;16.326;2022-09-09T06:14:27;1.95;;;1.65;;
10565;SDS011;5331;48.148;16.326;2022-09-09T06:16:55;1.77;;;1.67;;
10565;SDS011;5331;48.148;16.326;2022-09-09T06:19:21;1.88;;;1.75;;
10565;SDS011;5331;48.148;16.326;2022-09-09T06:21:51;1.75;;;1.50;;
10565;SDS011;5331;48.148;16.326;2022-09-09T06:24:18;1.40;;;1.40;;
10565;SDS011;5331;48.148;16.326;2022-09-09T06:26:47;1.75;;;1.40;;
10565;SDS011;5331;48.148;16.326;2022-09-09T06:29:14;2.75;;;1.55;;
10565;SDS011;5331;48.148;16.326;2022-09-09T06:31:41;2.03;;;1.80;;
10565;SDS011;5331;48.148;16.326;2022-09-09T06:34:08;2.13;;;1.80;;
10565;SDS011;5331;48.148;16.326;2022-09-09T06:36:36;1.70;;;1.60;;
10565;SDS011;5331;48.148;16.326;2022-09-09T06:39:04;3.05;;;2.10;;
10565;SDS011;5331;48.148;16.326;2022-09-09T06:41:32;1.92;;;1.83;;
10565;SDS011;5331;48.148;16.326;2022-09-09T06:44:00;2.53;;;1.98;;
10565;SDS011;5331;48.148;16.326;2022-09-09T06:46:28;2.60;;;2.10;;
10565;SDS011;5331;48.148;16.326;2022-09-09T06:48:58;2.25;;;2.10;;
10565;SDS011;5331;48.148;16.326;2022-09-09T06:51:26;2.28;;;2.08;;
10565;SDS011;5331;48.148;16.326;2022-09-09T06:53:55;3.38;;;2.75;;
10565;SDS011;5331;48.148;16.326;2022-09-09T06:56:24;2.60;;;2.40;;
10565;SDS011;5331;48.148;16.326;2022-09-09T06:58:53;2.50;;;2.30;;
10565;SDS011;5331;48.148;16.326;2022-09-09T07:01:23;2.78;;;2.30;;
10565;SDS011;5331;48.148;16.326;2022-09-09T07:03:51;2.78;;;2.33;;
10565;SDS011;5331;48.148;16.326;2022-09-09T07:06:21;3.28;;;2.42;;
10565;SDS011;5331;48.148;16.326;2022-09-09T07:08:50;2.88;;;2.67;;
10565;SDS011;5331;48.148;16.326;2022-09-09T07:11:18;3.05;;;2.50;;
10565;SDS011;5331;48.148;16.326;2022-09-09T07:13:46;2.40;;;2.20;;
10565;SDS011;5331;48.148;16.326;2022-09-09T07:16:13;2.13;;;2.03;;
10565;SDS011;5331;48.148;16.326;2022-09-09T07:18:43;3.13;;;2.47;;
10565;SDS011;5331;48.148;16.326;2022-09-09T07:21:11;3.97;;;2.67;;
10565;SDS011;5331;48.148;16.326;2022-09-09T07:23:39;2.70;;;2.50;;
10565;SDS011;5331;48.148;16.326;2022-09-09T07:26:07;2.70;;;2.50;;
10565;SDS011;5331;48.148;16.326;2022-09-09T07:28:35;3.00;;;2.58;;
10565;SDS011;5331;48.148;16.326;2022-09-09T07:31:03;3.40;;;2.58;;
10565;SDS011;5331;48.148;16.326;2022-09-09T07:33:32;6.53;;;4.00;;
10565;SDS011;5331;48.148;16.326;2022-09-09T07:36:06;2.30;;;2.10;;
10565;SDS011;5331;48.148;16.326;2022-09-09T07:38:37;2.20;;;2.10;;
10565;SDS011;5331;48.148;16.326;2022-09-09T07:41:06;2.30;;;2.13;;
10565;SDS011;5331;48.148;16.326;2022-09-09T07:43:36;3.17;;;2.17;;
10565;SDS011;5331;48.148;16.326;2022-09-09T07:46:05;2.20;;;2.05;;
10565;SDS011;5331;48.148;16.326;2022-09-09T07:48:32;2.00;;;1.90;;
10565;SDS011;5331;48.148;16.326;2022-09-09T07:51:05;3.75;;;2.17;;
10565;SDS011;5331;48.148;16.326;2022-09-09T07:53:34;3.25;;;2.30;;
10565;SDS011;5331;48.148;16.326;2022-09-09T07:56:03;2.28;;;2.08;;
10565;SDS011;5331;48.148;16.326;2022-09-09T07:58:32;4.03;;;1.90;;
10565;SDS011;5331;48.148;16.326;2022-09-09T08:00:59;3.20;;;2.28;;
10565;SDS011;5331;48.148;16.326;2022-09-09T08:03:25;3.80;;;2.20;;
10565;SDS011;5331;48.148;16.326;2022-09-09T08:05:52;2.40;;;2.15;;
10565;SDS011;5331;48.148;16.326;2022-09-09T08:08:27;3.00;;;2.30;;
10565;SDS011;5331;48.148;16.326;2022-09-09T08:11:00;2.10;;;1.95;;
10565;SDS011;5331;48.148;16.326;2022-09-09T08:13:28;2.38;;;2.17;;
10565;SDS011;5331;48.148;16.326;2022-09-09T08:16:03;2.30;;;2.10;;
10565;SDS011;5331;48.148;16.326;2022-09-09T08:18:31;3.05;;;2.03;;
10565;SDS011;5331;48.148;16.326;2022-09-09T08:21:04;3.05;;;2.25;;
10565;SDS011;5331;48.148;16.326;2022-09-09T08:23:33;3.05;;;2.28;;
10565;SDS011;5331;48.148;16.326;2022-09-09T08:26:03;2.50;;;2.10;;
10565;SDS011;5331;48.148;16.326;2022-09-09T08:28:36;2.47;;;2.08;;
10565;SDS011;5331;48.148;16.326;2022-09-09T08:31:10;2.83;;;2.30;;
10565;SDS011;5331;48.148;16.326;2022-09-09T08:33:38;3.88;;;2.50;;
10565;SDS011;5331;48.148;16.326;2022-09-09T08:36:06;3.20;;;2.70;;
10565;SDS011;5331;48.148;16.326;2022-09-09T08:38:36;2.40;;;2.10;;
10565;SDS011;5331;48.148;16.326;2022-09-09T08:41:07;2.83;;;2.33;;
10565;SDS011;5331;48.148;16.326;2022-09-09T08:43:50;3.60;;;2.05;;
10565;SDS011;5331;48.148;16.326;2022-09-09T08:46:20;6.13;;;2.30;;
10565;SDS011;5331;48.148;16.326;2022-09-09T08:48:55;3.70;;;2.28;;
10565;SDS011;5331;48.148;16.326;2022-09-09T08:51:27;2.70;;;2.47;;
10565;SDS011;5331;48.148;16.326;2022-09-09T08:53:59;3.70;;;2.20;;
10565;SDS011;5331;48.148;16.326;2022-09-09T08:56:28;3.05;;;2.38;;
10565;SDS011;5331;48.148;16.326;2022-09-09T08:58:59;3.35;;;2.10;;
10565;SDS011;5331;48.148;16.326;2022-09-09T09:01:38;3.97;;;2.40;;
10565;SDS011;5331;48.148;16.326;2022-09-09T09:04:25;3.58;;;2.22;;
10565;SDS011;5331;48.148;16.326;2022-09-09T09:07:02;3.80;;;2.00;;
10565;SDS011;5331;48.148;16.326;2022-09-09T09:09:39;3.13;;;1.85;;
10565;SDS011;5331;48.148;16.326;2022-09-09T09:12:15;2.75;;;1.88;;
10565;SDS011;5331;48.148;16.326;2022-09-09T09:14:44;4.60;;;2.10;;
10565;SDS011;5331;48.148;16.326;2022-09-09T09:17:14;4.25;;;1.80;;
10565;SDS011;5331;48.148;16.326;2022-09-09T09:19:45;2.80;;;1.75;;
10565;SDS011;5331;48.148;16.326;2022-09-09T09:22:16;5.25;;;1.70;;
10565;SDS011;5331;48.148;16.326;2022-09-09T09:24:51;1.38;;;1.27;;
10565;SDS011;5331;48.148;16.326;2022-09-09T09:27:21;2.88;;;1.58;;
10565;SDS011;5331;48.148;16.326;2022-09-09T09:29:57;1.60;;;1.50;;
10565;SDS011;5331;48.148;16.326;2022-09-09T09:32:25;1.30;;;1.30;;
10565;SDS011;5331;48.148;16.326;2022-09-09T09:34:57;1.45;;;1.40;;
10565;SDS011;5331;48.148;16.326;2022-09-09T09:37:26;2.20;;;1.50;;
10565;SDS011;5331;48.148;16.326;2022-09-09T09:40:06;2.88;;;1.20;;
10565;SDS011;5331;48.148;16.326;2022-09-09T09:42:35;2.40;;;1.50;;
10565;SDS011;5331;48.148;16.326;2022-09-09T09:45:07;2.35;;;1.45;;
10565;SDS011;5331;48.148;16.326;2022-09-09T09:47:35;1.23;;;1.23;;
10565;SDS011;5331;48.148;16.326;2022-09-09T09:50:02;1.95;;;1.30;;
10565;SDS011;5331;48.148;16.326;2022-09-09T09:52:30;2.33;;;1.80;;
10565;SDS011;5331;48.148;16.326;2022-09-09T09:55:02;2.78;;;1.60;;
10565;SDS011;5331;48.148;16.326;2022-09-09T09:57:32;2.85;;;2.00;;
10565;SDS011;5331;48.148;16.326;2022-09-09T10:00:01;4.28;;;2.10;;
10565;SDS011;5331;48.148;16.326;2022-09-09T10:02:40;2.38;;;1.85;;
10565;SDS011;5331;48.148;16.326;2022-09-09T10:05:12;2.75;;;2.30;;
10565;SDS011;5331;48.148;16.326;2022-09-09T10:07:45;1.85;;;1.75;;
10565;SDS011;5331;48.148;16.326;2022-09-09T10:10:14;4.15;;;2.20;;
10565;SDS011;5331;48.148;16.326;2022-09-09T10:12:48;2.78;;;2.00;;
10565;SDS011;5331;48.148;16.326;2022-09-09T10:15:29;2.22;;;1.90;;
10565;SDS011;5331;48.148;16.326;2022-09-09T10:18:06;3.28;;;2.50;;
10565;SDS011;5331;48.148;16.326;2022-09-09T10:20:49;2.42;;;2.22;;
10565;SDS011;5331;48.148;16.326;2022-09-09T10:23:28;3.53;;;2.58;;
10565;SDS011;5331;48.148;16.326;2022-09-09T10:29:05;2.10;;;1.90;;
10565;SDS011;5331;48.148;16.326;2022-09-09T10:31:49;3.78;;;2.05;;
10565;SDS011;5331;48.148;16.326;2022-09-09T10:34:30;4.30;;;2.00;;
10565;SDS011;5331;48.148;16.326;2022-09-09T10:37:16;2.83;;;2.08;;
10565;SDS011;5331;48.148;16.326;2022-09-09T10:39:53;1.92;;;1.80;;
10565;SDS011;5331;48.148;16.326;2022-09-09T10:42:30;1.65;;;1.55;;
10565;SDS011;5331;48.148;16.326;2022-09-09T10:45:02;1.58;;;1.50;;
10565;SDS011;5331;48.148;16.326;2022-09-09T10:47:56;2.15;;;1.45;;
10565;SDS011;5331;48.148;16.326;2022-09-09T10:50:38;1.60;;;1.50;;
10565;SDS011;5331;48.148;16.326;2022-09-09T10:53:14;1.63;;;1.52;;
10565;SDS011;5331;48.148;16.326;2022-09-09T10:55:50;2.67;;;1.58;;
10565;SDS011;5331;48.148;16.326;2022-09-09T10:58:22;1.52;;;1.50;;
10565;SDS011;5331;48.148;16.326;2022-09-09T11:00:54;1.52;;;1.40;;
10565;SDS011;5331;48.148;16.326;2022-09-09T11:03:25;3.13;;;1.50;;
10565;SDS011;5331;48.148;16.326;2022-09-09T11:05:56;1.60;;;1.50;;
10565;SDS011;5331;48.148;16.326;2022-09-09T11:08:27;1.73;;;1.63;;
10565;SDS011;5331;48.148;16.326;2022-09-09T11:10:57;1.73;;;1.60;;
10565;SDS011;5331;48.148;16.326;2022-09-09T11:13:30;2.03;;;1.83;;
10565;SDS011;5331;48.148;16.326;2022-09-09T11:16:05;1.92;;;1.67;;
10565;SDS011;5331;48.148;16.326;2022-09-09T11:18:43;2.05;;;1.60;;
10565;SDS011;5331;48.148;16.326;2022-09-09T11:21:15;1.70;;;1.60;;
10565;SDS011;5331;48.148;16.326;2022-09-09T11:23:48;1.83;;;1.60;;
10565;SDS011;5331;48.148;16.326;2022-09-09T11:26:20;3.40;;;1.70;;
10565;SDS011;5331;48.148;16.326;2022-09-09T11:29:01;2.05;;;1.45;;
10565;SDS011;5331;48.148;16.326;2022-09-09T11:31:42;2.53;;;1.65;;
10565;SDS011;5331;48.148;16.326;2022-09-09T11:34:16;1.73;;;1.63;;
10565;SDS011;5331;48.148;16.326;2022-09-09T11:42:44;1.70;;;1.60;;
10565;SDS011;5331;48.148;16.326;2022-09-09T11:45:19;1.40;;;1.30;;
10565;SDS011;5331;48.148;16.326;2022-09-09T11:47:51;1.83;;;1.30;;
10565;SDS011;5331;48.148;16.326;2022-09-09T11:53:18;1.45;;;1.30;;
10565;SDS011;5331;48.148;16.326;2022-09-09T11:56:11;2.20;;;1.33;;
10565;SDS011;5331;48.148;16.326;2022-09-09T11:58:41;1.63;;;1.50;;
10565;SDS011;5331;48.148;16.326;2022-09-09T12:01:25;1.40;;;1.30;;
10565;SDS011;5331;48.148;16.326;2022-09-09T12:06:43;1.10;;;1.10;;
10565;SDS011;5331;48.148;16.326;2022-09-09T12:09:18;5.30;;;1.50;;
10565;SDS011;5331;48.148;16.326;2022-09-09T12:11:49;1.13;;;1.13;;
10565;SDS011;5331;48.148;16.326;2022-09-09T12:14:22;1.40;;;1.17;;
10565;SDS011;5331;48.148;16.326;2022-09-09T12:17:10;2.10;;;1.30;;
10565;SDS011;5331;48.148;16.326;2022-09-09T12:19:45;1.15;;;1.10;;
10565;SDS011;5331;48.148;16.326;2022-09-09T12:22:16;1.17;;;1.05;;
10565;SDS011;5331;48.148;16.326;2022-09-09T12:24:54;1.20;;;1.20;;
10565;SDS011;5331;48.148;16.326;2022-09-09T12:27:27;1.10;;;1.10;;
10565;SDS011;5331;48.148;16.326;2022-09-09T12:30:02;1.30;;;1.20;;
10565;SDS011;5331;48.148;16.326;2022-09-09T12:32:36;1.30;;;1.10;;
10565;SDS011;5331;48.148;16.326;2022-09-09T12:35:04;2.10;;;1.40;;
10565;SDS011;5331;48.148;16.326;2022-09-09T12:37:38;1.75;;;1.30;;
10565;SDS011;5331;48.148;16.326;2022-09-09T12:40:18;1.10;;;1.10;;
10565;SDS011;5331;48.148;16.326;2022-09-09T12:42:47;1.42;;;1.33;;
10565;SDS011;5331;48.148;16.326;2022-09-09T12:45:16;1.73;;;1.20;;
10565;SDS011;5331;48.148;16.326;2022-09-09T12:47:47;1.10;;;1.10;;
10565;SDS011;5331;48.148;16.326;2022-09-09T12:50:17;1.00;;;1.00;;
10565;SDS011;5331;48.148;16.326;2022-09-09T12:52:47;1.10;;;1.10;;
10565;SDS011;5331;48.148;16.326;2022-09-09T12:55:18;1.25;;;1.20;;
10565;SDS011;5331;48.148;16.326;2022-09-09T12:57:50;1.48;;;1.38;;
10565;SDS011;5331;48.148;16.326;2022-09-09T13:00:18;1.20;;;1.20;;
10565;SDS011;5331;48.148;16.326;2022-09-09T13:02:50;1.73;;;1.30;;
10565;SDS011;5331;48.148;16.326;2022-09-09T13:05:19;1.58;;;1.25;;
10565;SDS011;5331;48.148;16.326;2022-09-09T13:07:48;1.30;;;1.30;;
10565;SDS011;5331;48.148;16.326;2022-09-09T13:10:17;2.35;;;1.30;;
10565;SDS011;5331;48.148;16.326;2022-09-09T13:12:53;2.35;;;1.30;;
10565;SDS011;5331;48.148;16.326;2022-09-09T13:15:21;1.23;;;1.20;;
10565;SDS011;5331;48.148;16.326;2022-09-09T13:17:54;1.58;;;1.48;;
10565;SDS011;5331;48.148;16.326;2022-09-09T13:20:23;1.35;;;1.25;;
10565;SDS011;5331;48.148;16.326;2022-09-09T13:22:51;2.00;;;1.60;;
10565;SDS011;5331;48.148;16.326;2022-09-09T13:25:21;1.30;;;1.20;;
10565;SDS011;5331;48.148;16.326;2022-09-09T13:27:52;1.45;;;1.35;;
10565;SDS011;5331;48.148;16.326;2022-09-09T13:30:30;1.40;;;1.30;;
10565;SDS011;5331;48.148;16.326;2022-09-09T13:33:06;1.40;;;1.30;;
10565;SDS011;5331;48.148;16.326;2022-09-09T13:35:48;2.45;;;1.40;;
10565;SDS011;5331;48.148;16.326;2022-09-09T13:38:19;3.38;;;1.50;;
10565;SDS011;5331;48.148;16.326;2022-09-09T13:40:53;1.63;;;1.50;;
10565;SDS011;5331;48.148;16.326;2022-09-09T13:43:23;1.67;;;1.40;;
10565;SDS011;5331;48.148;16.326;2022-09-09T13:45:54;1.17;;;1.17;;
10565;SDS011;5331;48.148;16.326;2022-09-09T13:48:24;1.48;;;1.30;;
10565;SDS011;5331;48.148;16.326;2022-09-09T13:50:55;1.33;;;1.30;;
10565;SDS011;5331;48.148;16.326;2022-09-09T13:53:24;1.45;;;1.40;;
10565;SDS011;5331;48.148;16.326;2022-09-09T13:55:51;1.70;;;1.33;;
10565;SDS011;5331;48.148;16.326;2022-09-09T13:58:19;1.30;;;1.20;;
10565;SDS011;5331;48.148;16.326;2022-09-09T14:00:47;5.53;;;1.58;;
10565;SDS011;5331;48.148;16.326;2022-09-09T14:03:15;1.58;;;1.40;;
10565;SDS011;5331;48.148;16.326;2022-09-09T14:05:43;1.17;;;1.17;;
10565;SDS011;5331;48.148;16.326;2022-09-09T14:08:13;2.15;;;1.50;;
10565;SDS011;5331;48.148;16.326;2022-09-09T14:10:46;3.00;;;1.50;;
10565;SDS011;5331;48.148;16.326;2022-09-09T14:13:13;1.40;;;1.30;;
10565;SDS011;5331;48.148;16.326;2022-09-09T14:15:40;1.35;;;1.30;;
10565;SDS011;5331;48.148;16.326;2022-09-09T14:18:08;1.50;;;1.40;;
10565;SDS011;5331;48.148;16.326;2022-09-09T14:20:38;1.92;;;1.50;;
10565;SDS011;5331;48.148;16.326;2022-09-09T14:23:07;4.65;;;1.58;;
10565;SDS011;5331;48.148;16.326;2022-09-09T14:25:38;1.30;;;1.30;;
10565;SDS011;5331;48.148;16.326;2022-09-09T14:28:07;2.05;;;1.52;;
10565;SDS011;5331;48.148;16.326;2022-09-09T14:30:36;2.05;;;1.35;;
10565;SDS011;5331;48.148;16.326;2022-09-09T14:33:04;1.33;;;1.30;;
10565;SDS011;5331;48.148;16.326;2022-09-09T14:35:30;4.22;;;1.30;;
10565;SDS011;5331;48.148;16.326;2022-09-09T14:37:58;2.90;;;1.35;;
10565;SDS011;5331;48.148;16.326;2022-09-09T14:40:27;3.08;;;1.50;;
10565;SDS011;5331;48.148;16.326;2022-09-09T14:42:54;1.40;;;1.30;;
10565;SDS011;5331;48.148;16.326;2022-09-09T14:45:21;1.55;;;1.40;;
10565;SDS011;5331;48.148;16.326;2022-09-09T14:47:49;1.30;;;1.30;;
10565;SDS011;5331;48.148;16.326;2022-09-09T14:50:17;1.30;;;1.20;;
10565;SDS011;5331;48.148;16.326;2022-09-09T14:52:44;1.55;;;1.23;;
10565;SDS011;5331;48.148;16.326;2022-09-09T14:55:10;1.67;;;1.30;;
10565;SDS011;5331;48.148;16.326;2022-09-09T14:57:39;1.70;;;1.35;;
10565;SDS011;5331;48.148;16.326;2022-09-09T15:00:06;2.63;;;1.38;;
10565;SDS011;5331;48.148;16.326;2022-09-09T15:02:35;1.40;;;1.30;;
10565;SDS011;5331;48.148;16.326;2022-09-09T15:05:02;2.13;;;1.50;;
10565;SDS011;5331;48.148;16.326;2022-09-09T15:07:29;1.73;;;1.23;;
10565;SDS011;5331;48.148;16.326;2022-09-09T15:09:57;2.35;;;1.27;;
10565;SDS011;5331;48.148;16.326;2022-09-09T15:12:24;2.08;;;1.30;;
10565;SDS011;5331;48.148;16.326;2022-09-09T15:14:53;1.20;;;1.20;;
10565;SDS011;5331;48.148;16.326;2022-09-09T15:17:20;1.42;;;1.33;;
10565;SDS011;5331;48.148;16.326;2022-09-09T15:19:46;2.10;;;1.33;;
10565;SDS011;5331;48.148;16.326;2022-09-09T15:22:15;1.30;;;1.20;;
10565;SDS011;5331;48.148;16.326;2022-09-09T15:24:42;1.02;;;1.02;;